Time;durP1;ratioP1;P1;durP2;ratioP2;P2;SDS_P1;SDS_P2;PMS_P1;PMS_P2;Temp;Humidity;BMP_temperature;BMP_pressure;BME280_temperature;BME280_humidity;BME280_pressure;Samples;Min_cycle;Max_cycle;Signal;HPM_P1;HPM_P2
2023/12/03 00:02:09;;;;;;;;;;;;;;;;;;4910578;29;19934;-66
2023/12/03 00:04:37;;;;;;;;;;;;;;;;;;4912157;29;19929;-64
2023/12/03 00:07:05;;;;;;;;;;;;;;;;;;4925520;28;20443;-64
2023/12/03 00:09:33;;;;;;;;;;;;;;;;;;4926462;28;19923;-64
2023/12/03 00:12:01;;;;;;;;;;;;;;;;;;4925588;28;20314;-64
2023/12/03 00:14:26;;;;;;;;;;;;;;;;;;4926135;28;19923;-64
2023/12/03 00:16:56;;;;;;;;;;;;;;;;;;4911227;29;19923;-64
2023/12/03 00:19:27;;;;;;;;;;;;;;;;;;4913222;29;20057;-64
2023/12/03 00:21:52;;;;;;;;;;;;;;;;;;4928325;28;19922;-64
2023/12/03 00:24:17;;;;;;;;;;;;;;;;;;4914789;29;19922;-64
2023/12/03 00:26:43;;;;;;;;;;;;;;;;;;4912975;29;20476;-64
2023/12/03 00:29:08;;;;;;;;;;;;;;;;;;4929442;28;19922;-64
2023/12/03 00:31:33;;;;;;;;;;;;;;;;;;4914522;29;20131;-64
2023/12/03 00:34:04;;;;;;;;;;;;;;;;;;4912883;29;20550;-63
2023/12/03 00:36:29;;;;;;;;;;;;;;;;;;4928860;28;21516;-63
2023/12/03 00:38:54;;;;;;;;;;;;;;;;;;4913520;29;20009;-63
2023/12/03 00:41:22;;;;;;;;;;;;;;;;;;4914254;29;19925;-63
2023/12/03 00:43:48;;;;;;;;;;;;;;;;;;4914852;29;19923;-64
2023/12/03 00:46:15;;;;;;;;;;;;;;;;;;4913582;29;20191;-63
2023/12/03 00:48:43;;;;;;;;;;;;;;;;;;4912748;29;20908;-63
2023/12/03 00:51:12;;;;;;;;;;;;;;;;;;4914435;29;20303;-62
2023/12/03 00:53:39;;;;;;;;;;;;;;;;;;4929421;28;19967;-62
2023/12/03 00:56:10;;;;;;;;;;;;;;;;;;4915015;29;20578;-63
2023/12/03 00:58:35;;;;;;;;;;;;;;;;;;4929524;28;20279;-62
2023/12/03 01:01:03;;;;;;;;;;;;;;;;;;4913320;29;19923;-62
2023/12/03 01:03:32;;;;;;;;;;;;;;;;;;4914695;29;19930;-62
2023/12/03 01:05:57;;;;;;;;;;;;;;;;;;4929197;28;19950;-62
2023/12/03 01:08:27;;;;;;;;;;;;;;;;;;4913645;29;19962;-62
2023/12/03 01:10:53;;;;;;;;;;;;;;;;;;4914073;29;20057;-62
2023/12/03 01:13:18;;;;;;;;;;;;;;;;;;4928245;28;20246;-61
2023/12/03 01:15:44;;;;;;;;;;;;;;;;;;4926616;28;20299;-61
2023/12/03 01:18:12;;;;;;;;;;;;;;;;;;4927534;28;19994;-61
2023/12/03 01:20:40;;;;;;;;;;;;;;;;;;4893279;29;20570;-61
2023/12/03 01:23:07;;;;;;;;;;;;;;;;;;4911119;29;19930;-61
2023/12/03 01:25:35;;;;;;;;;;;;;;;;;;4916097;29;19946;-61
2023/12/03 01:28:03;;;;;;;;;;;;;;;;;;4928109;28;20037;-61
2023/12/03 01:30:31;;;;;;;;;;;;;;;;;;4927739;28;19918;-62
2023/12/03 01:32:59;;;;;;;;;;;;;;;;;;4927399;28;19929;-61
2023/12/03 01:35:27;;;;;;;;;;;;;;;;;;4930137;28;19936;-61
2023/12/03 01:37:58;;;;;;;;;;;;;;;;;;4927050;28;19926;-61
2023/12/03 01:40:23;;;;;;;;;;;;;;;;;;4928721;28;20053;-60
2023/12/03 01:42:52;;;;;;;;;;;;;;;;;;4913001;29;22017;-61
2023/12/03 01:45:19;;;;;;;;;;;;;;;;;;4928784;28;19929;-62
2023/12/03 01:47:45;;;;;;;;;;;;;;;;;;4927172;28;20009;-62
2023/12/03 01:50:12;;;;;;;;;;;;;;;;;;4927921;28;19923;-61
2023/12/03 01:52:37;;;;;;;;;;;;;;;;;;4913204;29;19919;-62
2023/12/03 01:55:05;;;;;;;;;;;;;;;;;;4928071;28;19958;-61
2023/12/03 01:57:30;;;;;;;;;;;;;;;;;;4927557;28;20013;-61
2023/12/03 02:00:02;;;;;;;;;;;;;;;;;;4914000;29;19923;-62
2023/12/03 02:02:29;;;;;;;;;;;;;;;;;;4929042;28;20053;-62
2023/12/03 02:04:54;;;;;;;;;;;;;;;;;;4927749;28;19925;-62
2023/12/03 02:07:20;;;;;;;;;;;;;;;;;;4910008;29;19927;-62
2023/12/03 02:09:45;;;;;;;;;;;;;;;;;;4928778;28;19919;-62
2023/12/03 02:12:13;;;;;;;;;;;;;;;;;;4910714;29;22249;-62
2023/12/03 02:14:38;;;;;;;;;;;;;;;;;;4914740;29;19922;-62
2023/12/03 02:17:06;;;;;;;;;;;;;;;;;;4926883;28;19922;-62
2023/12/03 02:19:33;;;;;;;;;;;;;;;;;;4907579;29;19923;-62
2023/12/03 02:22:02;;;;;;;;;;;;;;;;;;4926477;28;19930;-63
2023/12/03 02:24:32;;;;;;;;;;;;;;;;;;4927928;28;19922;-62
2023/12/03 02:27:00;;;;;;;;;;;;;;;;;;4913224;29;20069;-62
2023/12/03 02:29:26;;;;;;;;;;;;;;;;;;4912005;29;20006;-62
2023/12/03 02:31:54;;;;;;;;;;;;;;;;;;4927409;28;20459;-63
2023/12/03 02:34:19;;;;;;;;;;;;;;;;;;4912841;29;19946;-62
2023/12/03 02:36:44;;;;;;;;;;;;;;;;;;4927313;28;19973;-63
2023/12/03 02:39:09;;;;;;;;;;;;;;;;;;4913123;29;19999;-63
2023/12/03 02:41:35;;;;;;;;;;;;;;;;;;4913117;29;19919;-63
2023/12/03 02:44:00;;;;;;;;;;;;;;;;;;4912102;29;19923;-63
2023/12/03 02:46:25;;;;;;;;;;;;;;;;;;4910765;29;19925;-63
2023/12/03 02:48:53;;;;;;;;;;;;;;;;;;4909927;29;19919;-63
2023/12/03 02:51:18;;;;;;;;;;;;;;;;;;4909950;29;19978;-62
2023/12/03 02:53:46;;;;;;;;;;;;;;;;;;4927938;28;20006;-63
2023/12/03 02:56:13;;;;;;;;;;;;;;;;;;4912570;29;19934;-62
2023/12/03 02:58:41;;;;;;;;;;;;;;;;;;4927200;28;20320;-62
2023/12/03 03:01:06;;;;;;;;;;;;;;;;;;4926565;28;20054;-62
2023/12/03 03:03:32;;;;;;;;;;;;;;;;;;4911627;29;20359;-62
2023/12/03 03:06:00;;;;;;;;;;;;;;;;;;4910135;29;20359;-62
2023/12/03 03:08:25;;;;;;;;;;;;;;;;;;4928272;28;19923;-62
2023/12/03 03:10:51;;;;;;;;;;;;;;;;;;4927058;28;20456;-62
2023/12/03 03:13:16;;;;;;;;;;;;;;;;;;4926692;28;19927;-62
2023/12/03 03:15:44;;;;;;;;;;;;;;;;;;4927164;28;19949;-62
2023/12/03 03:18:09;;;;;;;;;;;;;;;;;;4910985;29;19923;-62
2023/12/03 03:20:37;;;;;;;;;;;;;;;;;;4911656;29;19924;-63
2023/12/03 03:23:02;;;;;;;;;;;;;;;;;;4911857;29;19963;-63
2023/12/03 03:25:27;;;;;;;;;;;;;;;;;;4926907;28;19942;-63
2023/12/03 03:27:55;;;;;;;;;;;;;;;;;;4909484;29;20403;-63
2023/12/03 03:30:21;;;;;;;;;;;;;;;;;;4911732;29;19922;-62
2023/12/03 03:32:49;;;;;;;;;;;;;;;;;;4926567;28;20026;-63
2023/12/03 03:35:14;;;;;;;;;;;;;;;;;;4912056;29;19922;-62
2023/12/03 03:37:39;;;;;;;;;;;;;;;;;;4925051;28;19923;-63
2023/12/03 03:40:05;;;;;;;;;;;;;;;;;;4925899;28;19923;-63
2023/12/03 03:42:33;;;;;;;;;;;;;;;;;;4926680;28;19926;-63
2023/12/03 03:44:58;;;;;;;;;;;;;;;;;;4923039;28;19919;-63
2023/12/03 03:47:29;;;;;;;;;;;;;;;;;;4908697;29;19981;-63
2023/12/03 03:49:57;;;;;;;;;;;;;;;;;;4925681;28;19926;-63
2023/12/03 03:52:25;;;;;;;;;;;;;;;;;;4924630;28;20045;-63
2023/12/03 03:54:50;;;;;;;;;;;;;;;;;;4928389;28;19925;-63
2023/12/03 03:57:16;;;;;;;;;;;;;;;;;;4930101;28;19918;-63
2023/12/03 03:59:41;;;;;;;;;;;;;;;;;;4915094;29;20387;-63
2023/12/03 04:02:09;;;;;;;;;;;;;;;;;;4930488;28;20389;-63
2023/12/03 04:04:37;;;;;;;;;;;;;;;;;;4928949;28;19919;-63
2023/12/03 04:07:03;;;;;;;;;;;;;;;;;;4924673;28;19927;-63
2023/12/03 04:09:31;;;;;;;;;;;;;;;;;;4897654;29;19983;-63
2023/12/03 04:11:56;;;;;;;;;;;;;;;;;;4911108;29;20403;-63
2023/12/03 04:14:22;;;;;;;;;;;;;;;;;;4895787;29;20450;-62
2023/12/03 04:16:53;;;;;;;;;;;;;;;;;;4910941;29;19970;-63
2023/12/03 04:19:18;;;;;;;;;;;;;;;;;;4922077;28;20002;-63
2023/12/03 04:21:44;;;;;;;;;;;;;;;;;;4926448;28;19923;-63
2023/12/03 04:24:09;;;;;;;;;;;;;;;;;;4927537;28;19923;-63
2023/12/03 04:26:34;;;;;;;;;;;;;;;;;;4926449;28;19965;-63
2023/12/03 04:29:04;;;;;;;;;;;;;;;;;;4912715;29;19920;-63
2023/12/03 04:31:32;;;;;;;;;;;;;;;;;;4924095;28;20508;-63
2023/12/03 04:33:58;;;;;;;;;;;;;;;;;;4925855;28;19919;-63
2023/12/03 04:36:31;;;;;;;;;;;;;;;;;;4926231;28;20031;-63
2023/12/03 04:38:57;;;;;;;;;;;;;;;;;;4895896;29;20792;-63
2023/12/03 04:41:22;;;;;;;;;;;;;;;;;;4926389;28;20057;-63
2023/12/03 04:43:50;;;;;;;;;;;;;;;;;;4927116;28;20009;-63
2023/12/03 04:46:18;;;;;;;;;;;;;;;;;;4925090;28;20001;-63
2023/12/03 04:48:43;;;;;;;;;;;;;;;;;;4905703;29;20356;-62
2023/12/03 04:51:12;;;;;;;;;;;;;;;;;;4910124;29;20447;-62
2023/12/03 04:53:38;;;;;;;;;;;;;;;;;;4893957;29;20013;-62
2023/12/03 04:56:03;;;;;;;;;;;;;;;;;;4896466;29;20027;-62
2023/12/03 04:58:31;;;;;;;;;;;;;;;;;;4923788;28;19919;-62
2023/12/03 05:01:02;;;;;;;;;;;;;;;;;;4925087;28;19926;-62
2023/12/03 05:03:27;;;;;;;;;;;;;;;;;;4926522;28;20112;-62
2023/12/03 05:05:54;;;;;;;;;;;;;;;;;;4925460;28;21344;-63
2023/12/03 05:08:20;;;;;;;;;;;;;;;;;;4929501;28;20009;-63
2023/12/03 05:10:45;;;;;;;;;;;;;;;;;;4923655;28;19923;-62
2023/12/03 05:13:13;;;;;;;;;;;;;;;;;;4927564;28;20586;-62
2023/12/03 05:15:41;;;;;;;;;;;;;;;;;;4915122;29;19938;-62
2023/12/03 05:18:08;;;;;;;;;;;;;;;;;;4928035;28;20472;-61
2023/12/03 05:20:34;;;;;;;;;;;;;;;;;;4929146;28;19923;-62
2023/12/03 05:26:16;;;;;;;;;;;;;;;;;;4914403;29;19969;-62
2023/12/03 05:28:41;;;;;;;;;;;;;;;;;;4929300;28;19923;-64
2023/12/03 05:31:09;;;;;;;;;;;;;;;;;;4926776;28;19926;-62
2023/12/03 05:33:37;;;;;;;;;;;;;;;;;;4899711;29;19969;-63
2023/12/03 05:36:06;;;;;;;;;;;;;;;;;;4912657;29;19974;-62
2023/12/03 05:38:36;;;;;;;;;;;;;;;;;;4912241;29;19946;-62
2023/12/03 05:41:01;;;;;;;;;;;;;;;;;;4915349;29;19923;-63
2023/12/03 05:43:26;;;;;;;;;;;;;;;;;;4926790;28;19923;-63
2023/12/03 05:48:39;;;;;;;;;;;;;;;;;;4914432;29;19925;-63
2023/12/03 05:51:07;;;;;;;;;;;;;;;;;;4927672;28;19974;-62
2023/12/03 05:53:32;;;;;;;;;;;;;;;;;;4926354;28;20064;-63
2023/12/03 05:56:00;;;;;;;;;;;;;;;;;;4928617;28;19923;-62
2023/12/03 05:58:25;;;;;;;;;;;;;;;;;;4912141;29;20390;-63
2023/12/03 06:00:50;;;;;;;;;;;;;;;;;;4926322;28;19922;-62
2023/12/03 06:03:21;;;;;;;;;;;;;;;;;;4928698;28;19929;-63
2023/12/03 06:05:46;;;;;;;;;;;;;;;;;;4913771;29;19950;-63
2023/12/03 06:08:15;;;;;;;;;;;;;;;;;;4913405;29;20364;-63
2023/12/03 06:10:40;;;;;;;;;;;;;;;;;;4926982;28;21474;-62
2023/12/03 06:13:05;;;;;;;;;;;;;;;;;;4911544;29;19923;-63
2023/12/03 06:15:33;;;;;;;;;;;;;;;;;;4928164;28;19938;-64
2023/12/03 06:18:01;;;;;;;;;;;;;;;;;;4912217;29;19936;-63
2023/12/03 06:20:29;;;;;;;;;;;;;;;;;;4928702;28;19970;-63
2023/12/03 06:26:11;;;;;;;;;;;;;;;;;;4913419;29;19933;-63
2023/12/03 06:28:36;;;;;;;;;;;;;;;;;;4912790;29;20295;-63
2023/12/03 06:31:02;;;;;;;;;;;;;;;;;;4913216;29;20408;-63
2023/12/03 06:33:30;;;;;;;;;;;;;;;;;;4912407;28;21423;-63
2023/12/03 06:35:57;;;;;;;;;;;;;;;;;;4927173;28;20216;-63
2023/12/03 06:38:25;;;;;;;;;;;;;;;;;;4910649;29;20023;-63
2023/12/03 06:40:53;;;;;;;;;;;;;;;;;;4923241;28;19923;-63
2023/12/03 06:43:23;;;;;;;;;;;;;;;;;;4920162;28;20020;-63
2023/12/03 06:45:51;;;;;;;;;;;;;;;;;;4927057;28;19923;-63
2023/12/03 06:48:16;;;;;;;;;;;;;;;;;;4912105;29;19919;-62
2023/12/03 06:50:42;;;;;;;;;;;;;;;;;;4927159;28;20490;-64
2023/12/03 06:53:07;;;;;;;;;;;;;;;;;;4926911;28;20562;-62
2023/12/03 06:55:32;;;;;;;;;;;;;;;;;;4924952;28;20407;-62
2023/12/03 06:58:00;;;;;;;;;;;;;;;;;;4911241;29;19942;-62
2023/12/03 07:00:31;;;;;;;;;;;;;;;;;;4925633;28;19939;-63
2023/12/03 07:02:58;;;;;;;;;;;;;;;;;;4921424;28;19918;-63
2023/12/03 07:05:26;;;;;;;;;;;;;;;;;;4913870;29;19927;-62
2023/12/03 07:07:52;;;;;;;;;;;;;;;;;;4919121;28;19934;-62
2023/12/03 07:10:20;;;;;;;;;;;;;;;;;;4920791;28;19926;-62
2023/12/03 07:12:47;;;;;;;;;;;;;;;;;;4921538;28;19927;-62
2023/12/03 07:15:13;;;;;;;;;;;;;;;;;;4893535;29;20476;-61
2023/12/03 07:17:40;;;;;;;;;;;;;;;;;;4908751;29;19919;-61
2023/12/03 07:20:06;;;;;;;;;;;;;;;;;;4923989;28;19923;-62
2023/12/03 07:22:34;;;;;;;;;;;;;;;;;;4921515;28;20316;-61
2023/12/03 07:25:05;;;;;;;;;;;;;;;;;;4908819;29;19934;-62
2023/12/03 07:27:30;;;;;;;;;;;;;;;;;;4891057;29;19919;-62
2023/12/03 07:29:55;;;;;;;;;;;;;;;;;;4917554;28;19930;-62
2023/12/03 07:32:21;;;;;;;;;;;;;;;;;;4906445;29;19983;-62
2023/12/03 07:34:46;;;;;;;;;;;;;;;;;;4922102;28;20320;-62
2023/12/03 07:37:14;;;;;;;;;;;;;;;;;;4921564;28;19919;-62
2023/12/03 07:39:41;;;;;;;;;;;;;;;;;;4893505;29;19971;-62
2023/12/03 07:42:06;;;;;;;;;;;;;;;;;;4923173;28;20147;-62
2023/12/03 07:44:34;;;;;;;;;;;;;;;;;;4907927;29;20392;-62
2023/12/03 07:47:00;;;;;;;;;;;;;;;;;;4891777;29;20526;-62
2023/12/03 07:49:25;;;;;;;;;;;;;;;;;;4922743;28;20264;-62
2023/12/03 07:51:50;;;;;;;;;;;;;;;;;;4922721;28;19919;-62
2023/12/03 07:54:15;;;;;;;;;;;;;;;;;;4921165;28;20008;-62
2023/12/03 07:56:41;;;;;;;;;;;;;;;;;;4907637;29;20350;-62
2023/12/03 07:59:06;;;;;;;;;;;;;;;;;;4922945;28;20351;-62
2023/12/03 08:01:31;;;;;;;;;;;;;;;;;;4905921;29;19923;-63
2023/12/03 08:03:56;;;;;;;;;;;;;;;;;;4906280;29;19922;-62
2023/12/03 08:06:22;;;;;;;;;;;;;;;;;;4906195;29;20096;-62
2023/12/03 08:08:47;;;;;;;;;;;;;;;;;;4907887;29;20006;-62
2023/12/03 08:11:15;;;;;;;;;;;;;;;;;;4892416;29;20320;-62
2023/12/03 08:13:40;;;;;;;;;;;;;;;;;;4893138;29;19962;-61
2023/12/03 08:16:05;;;;;;;;;;;;;;;;;;4921559;28;19927;-62
2023/12/03 08:18:36;;;;;;;;;;;;;;;;;;4892185;29;19971;-61
2023/12/03 08:21:01;;;;;;;;;;;;;;;;;;4924073;28;19926;-61
2023/12/03 08:23:26;;;;;;;;;;;;;;;;;;4893091;29;19923;-62
2023/12/03 08:25:54;;;;;;;;;;;;;;;;;;4922252;28;19919;-62
2023/12/03 08:28:19;;;;;;;;;;;;;;;;;;4906145;29;19919;-62
2023/12/03 08:30:49;;;;;;;;;;;;;;;;;;4922016;28;19919;-61
2023/12/03 08:33:17;;;;;;;;;;;;;;;;;;4922998;28;20009;-62
2023/12/03 08:35:45;;;;;;;;;;;;;;;;;;4906977;29;19931;-62
2023/12/03 08:38:13;;;;;;;;;;;;;;;;;;4892458;29;19986;-62
2023/12/03 08:40:40;;;;;;;;;;;;;;;;;;4892654;29;20090;-61
2023/12/03 08:43:08;;;;;;;;;;;;;;;;;;4926672;28;20443;-62
2023/12/03 08:45:36;;;;;;;;;;;;;;;;;;4911458;29;19923;-61
2023/12/03 08:48:02;;;;;;;;;;;;;;;;;;4925646;28;19942;-61
2023/12/03 08:50:31;;;;;;;;;;;;;;;;;;4909786;29;19919;-62
2023/12/03 08:52:57;;;;;;;;;;;;;;;;;;4926382;28;19923;-62
2023/12/03 08:55:22;;;;;;;;;;;;;;;;;;4924679;28;19934;-62
2023/12/03 08:57:50;;;;;;;;;;;;;;;;;;4894550;29;19919;-61
2023/12/03 09:00:15;;;;;;;;;;;;;;;;;;4926362;28;20364;-62
2023/12/03 09:02:41;;;;;;;;;;;;;;;;;;4924638;28;19970;-62
2023/12/03 09:05:06;;;;;;;;;;;;;;;;;;4925065;28;20592;-62
2023/12/03 09:07:34;;;;;;;;;;;;;;;;;;4911848;29;20397;-62
2023/12/03 09:09:59;;;;;;;;;;;;;;;;;;4895767;29;20116;-62
2023/12/03 09:12:24;;;;;;;;;;;;;;;;;;4923650;28;20017;-62
2023/12/03 09:14:52;;;;;;;;;;;;;;;;;;4904491;29;19942;-62
2023/12/03 09:17:17;;;;;;;;;;;;;;;;;;4925395;28;20375;-62
2023/12/03 09:19:42;;;;;;;;;;;;;;;;;;4923872;28;19958;-62
2023/12/03 09:22:08;;;;;;;;;;;;;;;;;;4923403;28;20018;-62
2023/12/03 09:24:35;;;;;;;;;;;;;;;;;;4909263;29;20501;-62
2023/12/03 09:27:04;;;;;;;;;;;;;;;;;;4923738;28;19929;-62
2023/12/03 09:29:31;;;;;;;;;;;;;;;;;;4894788;29;19918;-62
2023/12/03 09:32:02;;;;;;;;;;;;;;;;;;4907990;29;20408;-63
2023/12/03 09:34:30;;;;;;;;;;;;;;;;;;4895387;29;19926;-63
2023/12/03 09:36:56;;;;;;;;;;;;;;;;;;4922990;28;20406;-62
2023/12/03 09:39:21;;;;;;;;;;;;;;;;;;4925298;28;19927;-63
2023/12/03 09:41:46;;;;;;;;;;;;;;;;;;4923340;28;20011;-63
2023/12/03 09:44:12;;;;;;;;;;;;;;;;;;4910149;29;20025;-63
2023/12/03 09:46:38;;;;;;;;;;;;;;;;;;4906260;29;19923;-61
2023/12/03 09:49:07;;;;;;;;;;;;;;;;;;4892151;29;19919;-62
2023/12/03 09:51:35;;;;;;;;;;;;;;;;;;4892244;29;19923;-63
2023/12/03 09:54:00;;;;;;;;;;;;;;;;;;4922670;28;19934;-62
2023/12/03 09:56:25;;;;;;;;;;;;;;;;;;4921337;28;20757;-63
2023/12/03 09:58:52;;;;;;;;;;;;;;;;;;4908917;29;20279;-63
2023/12/03 10:01:20;;;;;;;;;;;;;;;;;;4910101;29;19946;-64
2023/12/03 10:03:49;;;;;;;;;;;;;;;;;;4906734;29;20443;-62
2023/12/03 10:06:25;;;;;;;;;;;;;;;;;;4892433;29;20387;-63
2023/12/03 10:08:50;;;;;;;;;;;;;;;;;;4907683;29;19969;-63
2023/12/03 10:11:19;;;;;;;;;;;;;;;;;;4928037;28;19985;-63
2023/12/03 10:13:45;;;;;;;;;;;;;;;;;;4926741;28;20018;-65
2023/12/03 10:16:10;;;;;;;;;;;;;;;;;;4910682;28;19927;-63
2023/12/03 10:18:36;;;;;;;;;;;;;;;;;;4912170;29;21912;-64
2023/12/03 10:21:01;;;;;;;;;;;;;;;;;;4926069;28;19922;-65
2023/12/03 10:23:26;;;;;;;;;;;;;;;;;;4906156;29;19919;-65
2023/12/03 10:25:54;;;;;;;;;;;;;;;;;;4924768;28;19930;-65
2023/12/03 10:28:20;;;;;;;;;;;;;;;;;;4909029;29;19930;-66
2023/12/03 10:30:48;;;;;;;;;;;;;;;;;;4924700;28;19923;-66
2023/12/03 10:33:16;;;;;;;;;;;;;;;;;;4927621;28;19919;-67
2023/12/03 10:35:41;;;;;;;;;;;;;;;;;;4926694;28;20051;-67
2023/12/03 10:38:09;;;;;;;;;;;;;;;;;;4912268;29;20350;-67
2023/12/03 10:40:37;;;;;;;;;;;;;;;;;;4912621;29;20017;-67
2023/12/03 10:43:03;;;;;;;;;;;;;;;;;;4927043;28;19919;-67
2023/12/03 10:45:30;;;;;;;;;;;;;;;;;;4911492;29;19925;-67
2023/12/03 10:47:59;;;;;;;;;;;;;;;;;;4913389;29;20572;-68
2023/12/03 10:50:27;;;;;;;;;;;;;;;;;;4911335;29;19929;-68
2023/12/03 10:52:58;;;;;;;;;;;;;;;;;;4926241;28;19989;-68
2023/12/03 10:55:23;;;;;;;;;;;;;;;;;;4926067;28;20386;-68
2023/12/03 10:57:49;;;;;;;;;;;;;;;;;;4909186;29;19958;-67
2023/12/03 11:00:14;;;;;;;;;;;;;;;;;;4911506;29;19954;-68
2023/12/03 11:02:40;;;;;;;;;;;;;;;;;;4912899;29;19929;-68
2023/12/03 11:05:08;;;;;;;;;;;;;;;;;;4910226;29;19923;-68
2023/12/03 11:07:33;;;;;;;;;;;;;;;;;;4926961;28;19985;-69
2023/12/03 11:10:01;;;;;;;;;;;;;;;;;;4926815;28;19962;-68
2023/12/03 11:12:26;;;;;;;;;;;;;;;;;;4912657;29;19926;-69
2023/12/03 11:14:54;;;;;;;;;;;;;;;;;;4913875;29;19931;-69
2023/12/03 11:17:22;;;;;;;;;;;;;;;;;;4927695;28;19918;-68
2023/12/03 11:19:48;;;;;;;;;;;;;;;;;;4912212;29;20267;-69
2023/12/03 11:22:13;;;;;;;;;;;;;;;;;;4909717;29;19918;-69
2023/12/03 11:24:41;;;;;;;;;;;;;;;;;;4911645;29;19973;-69
2023/12/03 11:27:10;;;;;;;;;;;;;;;;;;4908923;29;19923;-69
2023/12/03 11:29:35;;;;;;;;;;;;;;;;;;4908862;29;19919;-70
2023/12/03 11:32:03;;;;;;;;;;;;;;;;;;4910781;29;19993;-70
2023/12/03 11:34:33;;;;;;;;;;;;;;;;;;4910265;29;19935;-71
2023/12/03 11:37:01;;;;;;;;;;;;;;;;;;4925572;28;19934;-70
2023/12/03 11:39:27;;;;;;;;;;;;;;;;;;4925854;28;21934;-71
2023/12/03 11:41:52;;;;;;;;;;;;;;;;;;4926292;28;19922;-73
2023/12/03 11:44:18;;;;;;;;;;;;;;;;;;4925728;28;19923;-72
2023/12/03 11:46:45;;;;;;;;;;;;;;;;;;4927255;28;20434;-71
2023/12/03 11:49:10;;;;;;;;;;;;;;;;;;4927495;28;20161;-70
2023/12/03 11:51:35;;;;;;;;;;;;;;;;;;4911548;29;20612;-71
2023/12/03 11:54:05;;;;;;;;;;;;;;;;;;4926635;28;19926;-69
2023/12/03 11:56:30;;;;;;;;;;;;;;;;;;4924894;28;19926;-71
2023/12/03 11:58:55;;;;;;;;;;;;;;;;;;4925625;28;20387;-71
2023/12/03 12:01:23;;;;;;;;;;;;;;;;;;4907636;29;19927;-70
2023/12/03 12:03:49;;;;;;;;;;;;;;;;;;4914580;29;19922;-72
2023/12/03 12:06:14;;;;;;;;;;;;;;;;;;4910076;29;20072;-71
2023/12/03 12:11:56;;;;;;;;;;;;;;;;;;4906618;29;19929;-73
2023/12/03 12:14:21;;;;;;;;;;;;;;;;;;4909843;29;19922;-73
2023/12/03 12:16:52;;;;;;;;;;;;;;;;;;4925281;28;19954;-73
2023/12/03 12:19:20;;;;;;;;;;;;;;;;;;4927734;28;19922;-72
2023/12/03 12:21:51;;;;;;;;;;;;;;;;;;4927240;28;19923;-70
2023/12/03 12:24:19;;;;;;;;;;;;;;;;;;4927295;28;20308;-68
2023/12/03 12:26:45;;;;;;;;;;;;;;;;;;4913268;29;19929;-71
2023/12/03 12:29:10;;;;;;;;;;;;;;;;;;4927709;28;19923;-73
2023/12/03 12:31:35;;;;;;;;;;;;;;;;;;4913430;29;19926;-70
2023/12/03 12:34:00;;;;;;;;;;;;;;;;;;4914790;29;19923;-72
2023/12/03 12:36:29;;;;;;;;;;;;;;;;;;4914451;29;19980;-72
2023/12/03 12:38:56;;;;;;;;;;;;;;;;;;4929128;28;19922;-72
2023/12/03 12:41:24;;;;;;;;;;;;;;;;;;4912217;29;20654;-72
2023/12/03 12:43:50;;;;;;;;;;;;;;;;;;4913172;29;19923;-71
2023/12/03 12:46:15;;;;;;;;;;;;;;;;;;4927500;28;19923;-73
2023/12/03 12:48:40;;;;;;;;;;;;;;;;;;4913970;29;19978;-72
2023/12/03 12:51:05;;;;;;;;;;;;;;;;;;4915505;29;19919;-73
2023/12/03 12:53:33;;;;;;;;;;;;;;;;;;4930338;28;20517;-70
2023/12/03 12:56:01;;;;;;;;;;;;;;;;;;4910273;29;19926;-72
2023/12/03 12:58:29;;;;;;;;;;;;;;;;;;4928487;28;20011;-73
2023/12/03 13:00:57;;;;;;;;;;;;;;;;;;4926621;28;19961;-73
2023/12/03 13:03:23;;;;;;;;;;;;;;;;;;4931137;28;20010;-70
2023/12/03 13:05:49;;;;;;;;;;;;;;;;;;4913721;29;19938;-72
2023/12/03 13:08:16;;;;;;;;;;;;;;;;;;4927109;28;20057;-71
2023/12/03 13:10:44;;;;;;;;;;;;;;;;;;4926529;28;20401;-70
2023/12/03 13:13:11;;;;;;;;;;;;;;;;;;4926230;28;19946;-72
2023/12/03 13:15:36;;;;;;;;;;;;;;;;;;4910688;29;20409;-72
2023/12/03 13:18:05;;;;;;;;;;;;;;;;;;4910701;29;19930;-73
2023/12/03 13:20:33;;;;;;;;;;;;;;;;;;4929538;28;19919;-72
2023/12/03 13:22:58;;;;;;;;;;;;;;;;;;4925259;28;19925;-71
2023/12/03 13:25:26;;;;;;;;;;;;;;;;;;4911517;29;19959;-72
2023/12/03 13:27:54;;;;;;;;;;;;;;;;;;4907679;28;19922;-73
2023/12/03 13:30:20;;;;;;;;;;;;;;;;;;4895504;29;19966;-70
2023/12/03 13:32:45;;;;;;;;;;;;;;;;;;4913488;29;20006;-73
2023/12/03 13:35:13;;;;;;;;;;;;;;;;;;4911888;29;20189;-72
2023/12/03 13:37:40;;;;;;;;;;;;;;;;;;4911648;29;19926;-72
2023/12/03 13:40:18;;;;;;;;;;;;;;;;;;4914084;29;20039;-72
2023/12/03 13:45:47;;;;;;;;;;;;;;;;;;4926448;28;20038;-73
2023/12/03 13:48:15;;;;;;;;;;;;;;;;;;4912915;29;19970;-73
2023/12/03 13:50:43;;;;;;;;;;;;;;;;;;4927427;28;19927;-72
2023/12/03 13:53:08;;;;;;;;;;;;;;;;;;4927020;28;19919;-73
2023/12/03 13:55:33;;;;;;;;;;;;;;;;;;4911784;29;19927;-72
2023/12/03 13:58:01;;;;;;;;;;;;;;;;;;4928456;28;19962;-74
2023/12/03 14:00:29;;;;;;;;;;;;;;;;;;4910250;29;20365;-74
2023/12/03 14:02:55;;;;;;;;;;;;;;;;;;4928789;28;19930;-74
2023/12/03 14:05:25;;;;;;;;;;;;;;;;;;4924758;28;19929;-73
2023/12/03 14:07:54;;;;;;;;;;;;;;;;;;4928581;28;19925;-74
2023/12/03 14:10:19;;;;;;;;;;;;;;;;;;4909837;29;20313;-74
2023/12/03 14:12:46;;;;;;;;;;;;;;;;;;4923936;28;19930;-74
2023/12/03 14:15:12;;;;;;;;;;;;;;;;;;4926150;28;20078;-74
2023/12/03 14:17:37;;;;;;;;;;;;;;;;;;4907665;29;21595;-73
2023/12/03 14:20:05;;;;;;;;;;;;;;;;;;4909675;29;19930;-74
2023/12/03 14:22:36;;;;;;;;;;;;;;;;;;4906179;29;19930;-73
2023/12/03 14:25:04;;;;;;;;;;;;;;;;;;4923948;28;19923;-73
2023/12/03 14:27:35;;;;;;;;;;;;;;;;;;4919843;28;20371;-73
2023/12/03 14:30:00;;;;;;;;;;;;;;;;;;4908708;29;19919;-73
2023/12/03 14:32:28;;;;;;;;;;;;;;;;;;4892257;29;20345;-73
2023/12/03 14:34:56;;;;;;;;;;;;;;;;;;4893354;29;19926;-73
2023/12/03 14:37:24;;;;;;;;;;;;;;;;;;4918911;28;19931;-73
2023/12/03 14:39:54;;;;;;;;;;;;;;;;;;4922484;28;19938;-72
2023/12/03 14:42:21;;;;;;;;;;;;;;;;;;4923823;28;20073;-71
2023/12/03 14:44:51;;;;;;;;;;;;;;;;;;4922384;28;19923;-72
2023/12/03 14:47:17;;;;;;;;;;;;;;;;;;4910206;29;20017;-71
2023/12/03 14:49:47;;;;;;;;;;;;;;;;;;4907496;29;19923;-72
2023/12/03 14:52:15;;;;;;;;;;;;;;;;;;4907361;29;19962;-72
2023/12/03 14:54:44;;;;;;;;;;;;;;;;;;4907332;29;19930;-72
2023/12/03 14:57:12;;;;;;;;;;;;;;;;;;4889239;29;19919;-71
2023/12/03 14:59:43;;;;;;;;;;;;;;;;;;4891895;29;20280;-72
2023/12/03 15:02:09;;;;;;;;;;;;;;;;;;4919061;28;19923;-71
2023/12/03 15:04:37;;;;;;;;;;;;;;;;;;4893169;29;19926;-69
2023/12/03 15:07:02;;;;;;;;;;;;;;;;;;4922327;28;19919;-72
2023/12/03 15:09:29;;;;;;;;;;;;;;;;;;4923532;28;19923;-70
2023/12/03 15:11:56;;;;;;;;;;;;;;;;;;4921695;28;19919;-71
2023/12/03 15:14:24;;;;;;;;;;;;;;;;;;4922826;28;19926;-71
2023/12/03 15:16:49;;;;;;;;;;;;;;;;;;4907490;29;20333;-71
2023/12/03 15:19:15;;;;;;;;;;;;;;;;;;4921521;28;19938;-71
2023/12/03 15:21:43;;;;;;;;;;;;;;;;;;4904917;29;19987;-70
2023/12/03 15:24:08;;;;;;;;;;;;;;;;;;4905875;29;20058;-71
2023/12/03 15:26:36;;;;;;;;;;;;;;;;;;4921428;28;19919;-71
2023/12/03 15:29:02;;;;;;;;;;;;;;;;;;4890623;29;20599;-71
2023/12/03 15:34:46;;;;;;;;;;;;;;;;;;4893153;29;19926;-70
2023/12/03 15:37:11;;;;;;;;;;;;;;;;;;4920800;28;20018;-71
2023/12/03 15:39:39;;;;;;;;;;;;;;;;;;4923575;28;19974;-71
2023/12/03 15:42:07;;;;;;;;;;;;;;;;;;4907213;29;20347;-70
2023/12/03 15:44:34;;;;;;;;;;;;;;;;;;4907658;29;20632;-71
2023/12/03 15:47:00;;;;;;;;;;;;;;;;;;4891510;29;20069;-70
2023/12/03 15:49:30;;;;;;;;;;;;;;;;;;4922404;28;20229;-71
2023/12/03 15:52:01;;;;;;;;;;;;;;;;;;4906714;29;19919;-71
2023/12/03 15:54:27;;;;;;;;;;;;;;;;;;4909004;29;19923;-70
2023/12/03 15:56:59;;;;;;;;;;;;;;;;;;4922838;28;20236;-71
2023/12/03 15:59:27;;;;;;;;;;;;;;;;;;4906102;29;20575;-71
2023/12/03 16:01:53;;;;;;;;;;;;;;;;;;4891753;29;19919;-70
2023/12/03 16:04:20;;;;;;;;;;;;;;;;;;4906274;29;19919;-70
2023/12/03 16:06:51;;;;;;;;;;;;;;;;;;4920366;28;19919;-70
2023/12/03 16:09:19;;;;;;;;;;;;;;;;;;4906562;29;19919;-70
2023/12/03 16:11:46;;;;;;;;;;;;;;;;;;4920687;28;19973;-70
2023/12/03 16:14:11;;;;;;;;;;;;;;;;;;4890712;29;19930;-69
2023/12/03 16:16:36;;;;;;;;;;;;;;;;;;4905858;29;21332;-70
2023/12/03 16:19:02;;;;;;;;;;;;;;;;;;4923309;28;19930;-70
2023/12/03 16:21:32;;;;;;;;;;;;;;;;;;4921442;28;19923;-69
2023/12/03 16:24:00;;;;;;;;;;;;;;;;;;4904631;29;21504;-70
2023/12/03 16:26:28;;;;;;;;;;;;;;;;;;4904133;29;19919;-71
2023/12/03 16:28:57;;;;;;;;;;;;;;;;;;4921522;28;19978;-69
2023/12/03 16:31:22;;;;;;;;;;;;;;;;;;4920645;28;20455;-71
2023/12/03 16:33:48;;;;;;;;;;;;;;;;;;4921893;28;20423;-71
2023/12/03 16:36:14;;;;;;;;;;;;;;;;;;4905441;29;20198;-72
2023/12/03 16:38:42;;;;;;;;;;;;;;;;;;4907702;29;20399;-69
2023/12/03 16:41:10;;;;;;;;;;;;;;;;;;4907170;29;19926;-70
2023/12/03 16:43:38;;;;;;;;;;;;;;;;;;4923055;28;20022;-70
2023/12/03 16:46:04;;;;;;;;;;;;;;;;;;4889008;29;20137;-70
2023/12/03 16:48:29;;;;;;;;;;;;;;;;;;4921977;28;19919;-69
2023/12/03 16:50:57;;;;;;;;;;;;;;;;;;4906029;29;19958;-69
2023/12/03 16:53:22;;;;;;;;;;;;;;;;;;4922085;28;20359;-69
2023/12/03 16:55:49;;;;;;;;;;;;;;;;;;4899941;29;20026;-69
2023/12/03 16:58:14;;;;;;;;;;;;;;;;;;4921215;28;19919;-69
2023/12/03 17:00:39;;;;;;;;;;;;;;;;;;4920313;28;19922;-70
2023/12/03 17:03:06;;;;;;;;;;;;;;;;;;4909387;29;20345;-69